LTBI/ESK METAR and TAF weather

Enter ICAO airport designator
Station Type Date Time Source
LTBI METAR 2019/04/20 21:50 UTC NOAA

LTBI 202150Z 29007KT 9999 SCT030 BKN100 02/M01 Q1020 NOSIG RMK RWY08 30009KT


Station Type Date Time Source
LTBI Decoded METAR 2019/04/20 21:50 UTC NOAA

Eskisehir, Turkey (LTBI) 39-47N 030-34E 785M
Apr 20, 2019 - 05:50 PM EDT / 2019.04.20 2150 UTC
Wind: from the WNW (290 degrees) at 8 MPH (7 KT):0
Visibility: greater than 7 mile(s):0
Sky conditions: mostly cloudy
Temperature: 35 F (2 C)
Windchill: 28 F (-2 C):1
Dew Point: 30 F (-1 C)
Relative Humidity: 80%
Pressure (altimeter): 30.12 in. Hg (1020 hPa)
ob: LTBI 202150Z 29007KT 9999 SCT030 BKN100 02/M01 Q1020 NOSIG RMK RWY08 30009KT
cycle: 22

Station Type Date Time Source
LTBI TAF 2012/05/11 09:09 UTC NOAA

TAF LTBI 110740Z 1109/1121 VRB02KT 6000 -SHRA BKN030 BKN090
TEMPO 1112/1116 33015KT 4000 -TSRA FEW025CB BKN030

Example: see airport list